Time;durP1;ratioP1;P1;durP2;ratioP2;P2;SDS_P1;SDS_P2;PMS_P1;PMS_P2;Temp;Humidity;BMP_temperature;BMP_pressure;BME280_temperature;BME280_humidity;BME280_pressure;Samples;Min_cycle;Max_cycle;Signal;HPM_P1;HPM_P2
2023/06/12 00:00:12;;;;;;;5.70;4.20;;;21.90;90.70;;;;;;4972983;28;20242;-81
2023/06/12 00:02:40;;;;;;;4.30;3.90;;;21.80;90.80;;;;;;5001788;28;20307;-78
2023/06/12 00:05:08;;;;;;;4.10;3.10;;;21.80;90.90;;;;;;5012589;28;20297;-78
2023/06/12 00:07:36;;;;;;;6.00;3.30;;;21.70;90.90;;;;;;4997988;28;20207;-78
2023/06/12 00:10:04;;;;;;;4.00;3.60;;;21.70;91.00;;;;;;4995857;28;20211;-78
2023/06/12 00:12:32;;;;;;;3.63;2.90;;;21.70;91.10;;;;;;4994828;28;20641;-78
2023/06/12 00:14:59;;;;;;;4.70;3.10;;;21.70;91.20;;;;;;4994050;28;20512;-78
2023/06/12 00:17:33;;;;;;;3.90;3.23;;;21.70;91.30;;;;;;5006438;28;20210;-77
2023/06/12 00:20:05;;;;;;;5.03;3.50;;;21.80;91.40;;;;;;4992708;28;20208;-78
2023/06/12 00:22:32;;;;;;;3.43;3.13;;;21.80;91.30;;;;;;4996426;28;20274;-77
2023/06/12 00:25:00;;;;;;;4.93;3.57;;;21.80;91.30;;;;;;4989943;28;20224;-77
2023/06/12 00:27:27;;;;;;;4.67;3.97;;;21.80;91.30;;;;;;4981064;28;20628;-78
2023/06/12 00:29:55;;;;;;;4.53;3.27;;;21.80;91.40;;;;;;4996317;28;20208;-78
2023/06/12 00:32:22;;;;;;;3.33;2.67;;;21.80;91.50;;;;;;4980642;28;20204;-78
2023/06/12 00:34:50;;;;;;;3.80;3.50;;;21.80;91.60;;;;;;4982363;28;20222;-78
2023/06/12 00:37:24;;;;;;;3.93;3.23;;;21.90;91.60;;;;;;4997690;28;20230;-77
2023/06/12 00:39:56;;;;;;;4.57;3.57;;;21.90;91.30;;;;;;5011087;28;20195;-78
2023/06/12 00:42:46;;;;;;;5.03;3.30;;;21.80;91.00;;;;;;4981503;28;20212;-78
2023/06/12 00:45:15;;;;;;;8.73;3.30;;;21.80;90.90;;;;;;4994050;28;20200;-77
2023/06/12 00:47:46;;;;;;;5.57;4.03;;;21.80;90.90;;;;;;4990930;28;20204;-78
2023/06/12 00:50:16;;;;;;;6.80;3.57;;;21.70;91.00;;;;;;5005218;28;20208;-77
2023/06/12 00:52:46;;;;;;;4.83;3.90;;;21.70;91.20;;;;;;4966353;28;20239;-78
2023/06/12 00:55:15;;;;;;;4.40;4.07;;;21.70;91.40;;;;;;4972746;28;20204;-78
2023/06/12 00:57:47;;;;;;;4.23;3.83;;;21.70;91.40;;;;;;4971175;28;20217;-77
2023/06/12 01:00:18;;;;;;;6.30;3.87;;;21.60;91.50;;;;;;4988145;28;20712;-79
2023/06/12 01:02:56;;;;;;;4.50;4.00;;;21.60;91.60;;;;;;4992236;28;20277;-76
2023/06/12 01:05:28;;;;;;;4.60;4.20;;;21.60;91.70;;;;;;4993133;28;20663;-79
2023/06/12 01:08:02;;;;;;;7.90;4.17;;;21.50;91.70;;;;;;4993543;28;20291;-78
2023/06/12 01:10:56;;;;;;;5.33;4.23;;;21.50;91.80;;;;;;4997237;28;20207;-78
2023/06/12 01:13:24;;;;;;;4.73;4.33;;;21.50;91.90;;;;;;4987949;28;20215;-78
2023/06/12 01:15:52;;;;;;;4.83;4.13;;;21.50;91.90;;;;;;4994391;28;20232;-77
2023/06/12 01:18:22;;;;;;;4.87;4.30;;;21.40;91.80;;;;;;4988605;28;20204;-78
2023/06/12 01:21:09;;;;;;;5.67;4.47;;;21.40;91.80;;;;;;4994805;28;20240;-77
2023/06/12 01:24:35;;;;;;;6.07;4.67;;;21.40;91.80;;;;;;4991054;28;20223;-78
2023/06/12 01:27:12;;;;;;;7.07;5.07;;;21.40;92.10;;;;;;4991211;28;20204;-77
2023/06/12 01:30:01;;;;;;;6.30;4.53;;;21.30;92.20;;;;;;4992701;28;20724;-79
2023/06/12 01:32:33;;;;;;;5.10;4.33;;;21.30;92.30;;;;;;4989251;28;20212;-79
2023/06/12 01:35:16;;;;;;;8.97;4.43;;;21.30;92.50;;;;;;4973195;28;20204;-77
2023/06/12 01:37:50;;;;;;;4.90;4.40;;;21.30;92.70;;;;;;4984465;28;20229;-77
2023/06/12 01:40:25;;;;;;;5.30;4.67;;;21.30;92.80;;;;;;4992656;28;20200;-77
2023/06/12 01:42:57;;;;;;;5.10;4.60;;;21.30;92.90;;;;;;4992006;28;20216;-80
2023/06/12 01:45:25;;;;;;;6.70;4.73;;;21.30;93.00;;;;;;4989178;28;20236;-77
2023/06/12 01:47:53;;;;;;;6.27;5.33;;;21.30;93.00;;;;;;4993337;28;20227;-78
2023/06/12 01:50:23;;;;;;;6.97;5.30;;;21.30;93.00;;;;;;5009355;28;20208;-79
2023/06/12 01:52:53;;;;;;;10.40;6.07;;;21.30;92.90;;;;;;4991435;28;20244;-77
2023/06/12 01:55:21;;;;;;;6.30;5.70;;;21.30;92.90;;;;;;5006263;28;20307;-79
2023/06/12 01:57:51;;;;;;;7.50;6.70;;;21.30;92.90;;;;;;4989412;28;20573;-77
2023/06/12 02:00:30;;;;;;;9.50;6.53;;;21.30;92.90;;;;;;4990460;28;20302;-78
2023/06/12 02:03:01;;;;;;;7.80;6.67;;;21.30;92.90;;;;;;4996567;28;20212;-78
2023/06/12 02:05:30;;;;;;;9.70;6.13;;;21.20;92.90;;;;;;4994278;28;20204;-78
2023/06/12 02:07:58;;;;;;;9.77;5.27;;;21.30;93.10;;;;;;4994839;28;20208;-78
2023/06/12 02:10:29;;;;;;;7.70;5.40;;;21.20;93.20;;;;;;4993539;28;20207;-77
2023/06/12 02:13:02;;;;;;;8.00;6.00;;;21.20;93.20;;;;;;4979083;28;20653;-77
2023/06/12 02:15:29;;;;;;;10.67;6.27;;;21.30;93.30;;;;;;4987493;28;20208;-78
2023/06/12 02:17:57;;;;;;;7.10;6.40;;;21.20;93.30;;;;;;4994626;28;20247;-78
2023/06/12 02:20:29;;;;;;;7.80;6.73;;;21.20;93.40;;;;;;4991139;28;20209;-78
2023/06/12 02:22:57;;;;;;;9.03;5.87;;;21.30;93.50;;;;;;4977629;28;20217;-79
2023/06/12 02:25:24;;;;;;;10.13;7.00;;;21.30;93.50;;;;;;5011237;28;20209;-77
2023/06/12 02:27:52;;;;;;;7.43;6.57;;;21.30;93.50;;;;;;4997099;28;20206;-78
2023/06/12 02:30:26;;;;;;;9.57;7.17;;;21.30;93.60;;;;;;4992868;28;20197;-78
2023/06/12 02:32:54;;;;;;;9.00;7.27;;;21.30;93.60;;;;;;5012479;28;20231;-77
2023/06/12 02:35:33;;;;;;;12.37;7.33;;;21.30;93.60;;;;;;4993349;28;20209;-78
2023/06/12 02:38:01;;;;;;;8.30;7.00;;;21.30;93.60;;;;;;4996068;28;20276;-78
2023/06/12 02:40:31;;;;;;;10.63;8.03;;;21.30;93.70;;;;;;4994127;28;20223;-78
2023/06/12 02:42:59;;;;;;;11.60;7.33;;;21.30;93.70;;;;;;4975974;28;20320;-77
2023/06/12 02:45:30;;;;;;;10.77;7.80;;;21.30;93.70;;;;;;4977822;28;20278;-78
2023/06/12 02:47:58;;;;;;;9.07;7.63;;;21.30;93.80;;;;;;4994730;28;20598;-77
2023/06/12 02:50:26;;;;;;;11.07;8.93;;;21.30;93.80;;;;;;4990398;28;20209;-78
2023/06/12 02:53:00;;;;;;;11.27;8.80;;;21.30;93.90;;;;;;4994771;28;20244;-78
2023/06/12 02:55:28;;;;;;;9.93;8.47;;;21.40;93.90;;;;;;4997063;28;20220;-78
2023/06/12 02:57:56;;;;;;;10.97;8.60;;;21.40;93.90;;;;;;4990116;28;20222;-78
2023/06/12 03:00:24;;;;;;;10.33;8.10;;;21.40;94.00;;;;;;4994829;28;20415;-79
2023/06/12 03:02:55;;;;;;;12.50;9.70;;;21.40;94.00;;;;;;4989575;28;20208;-77
2023/06/12 03:05:25;;;;;;;11.60;10.03;;;21.40;94.10;;;;;;4992711;28;20544;-80
2023/06/12 03:07:57;;;;;;;13.00;10.00;;;21.40;94.10;;;;;;4988683;28;20537;-78
2023/06/12 03:10:34;;;;;;;11.30;9.90;;;21.40;94.10;;;;;;4975909;28;20192;-80
2023/06/12 03:13:03;;;;;;;15.43;9.73;;;21.40;94.10;;;;;;4994255;28;20212;-78
2023/06/12 03:15:30;;;;;;;11.77;10.07;;;21.40;94.10;;;;;;4992419;28;20227;-77
2023/06/12 03:17:58;;;;;;;13.97;10.27;;;21.30;94.20;;;;;;4994491;28;20208;-77
2023/06/12 03:20:26;;;;;;;14.83;10.77;;;21.40;94.30;;;;;;4995888;28;20225;-77
2023/06/12 03:22:56;;;;;;;13.37;10.13;;;21.40;94.30;;;;;;4994719;28;20213;-78
2023/06/12 03:25:26;;;;;;;14.93;11.53;;;21.40;94.30;;;;;;4972848;28;20200;-79
2023/06/12 03:27:54;;;;;;;11.57;10.33;;;21.40;94.20;;;;;;4991187;28;20204;-77
2023/06/12 03:30:21;;;;;;;12.17;10.67;;;21.40;94.20;;;;;;4994332;28;20207;-77
2023/06/12 03:32:48;;;;;;;14.33;10.43;;;21.40;94.20;;;;;;5009868;28;20259;-77
2023/06/12 03:35:16;;;;;;;12.67;10.53;;;21.40;94.30;;;;;;4980896;28;20271;-78
2023/06/12 03:37:47;;;;;;;12.67;10.00;;;21.40;94.40;;;;;;5007277;28;20276;-78
2023/06/12 03:40:18;;;;;;;14.67;10.97;;;21.40;94.50;;;;;;4990503;28;20197;-78
2023/06/12 03:42:47;;;;;;;12.67;11.03;;;21.40;94.50;;;;;;4996038;28;20239;-78
2023/06/12 03:45:14;;;;;;;16.53;10.87;;;21.40;94.50;;;;;;4979809;28;20204;-78
2023/06/12 03:47:42;;;;;;;13.97;12.10;;;21.40;94.50;;;;;;4991330;28;20204;-77
2023/06/12 03:50:16;;;;;;;16.97;11.53;;;21.40;94.50;;;;;;4996649;28;20208;-77
2023/06/12 03:52:46;;;;;;;13.07;10.97;;;21.40;94.50;;;;;;4974804;28;20273;-77
2023/06/12 03:55:17;;;;;;;13.03;11.43;;;21.40;94.60;;;;;;4977019;28;20200;-78
2023/06/12 03:57:45;;;;;;;15.07;12.37;;;21.40;94.70;;;;;;4989082;28;20656;-78
2023/06/12 04:00:15;;;;;;;13.70;12.07;;;21.50;94.70;;;;;;5003856;28;20299;-78
2023/06/12 04:02:45;;;;;;;15.07;11.90;;;21.50;94.80;;;;;;4991939;28;20641;-79
2023/06/12 04:05:20;;;;;;;13.40;12.00;;;21.50;94.80;;;;;;4978102;28;20235;-77
2023/06/12 04:07:48;;;;;;;17.70;13.07;;;21.60;94.80;;;;;;4992681;28;20205;-77
2023/06/12 04:10:15;;;;;;;17.20;12.40;;;21.60;94.80;;;;;;4992396;28;20203;-78
2023/06/12 04:12:43;;;;;;;15.97;12.20;;;21.60;94.80;;;;;;5008143;28;20200;-79
2023/06/12 04:15:11;;;;;;;17.03;12.20;;;21.70;94.70;;;;;;4987316;28;20274;-78
2023/06/12 04:17:39;;;;;;;19.70;11.87;;;21.70;94.70;;;;;;4971660;28;20535;-78
2023/06/12 04:20:15;;;;;;;13.20;11.80;;;21.80;94.60;;;;;;5009666;28;20212;-77
2023/06/12 04:22:43;;;;;;;15.03;13.30;;;21.80;94.60;;;;;;4976227;28;20641;-77
2023/06/12 04:25:10;;;;;;;13.37;11.80;;;21.80;94.60;;;;;;4995806;28;20691;-79
2023/06/12 04:27:40;;;;;;;13.93;11.37;;;21.90;94.40;;;;;;4994315;28;20293;-78
2023/06/12 04:30:07;;;;;;;13.50;11.90;;;21.90;94.20;;;;;;4991477;28;20685;-78
2023/06/12 04:32:38;;;;;;;13.03;11.70;;;21.80;94.10;;;;;;4978905;28;20211;-78
2023/06/12 04:35:08;;;;;;;15.27;11.73;;;21.80;94.20;;;;;;4994356;28;20205;-78
2023/06/12 04:37:37;;;;;;;13.90;11.80;;;21.80;94.30;;;;;;4989049;28;20660;-78
2023/06/12 04:40:11;;;;;;;13.80;11.30;;;21.80;94.30;;;;;;5004411;28;20218;-78
2023/06/12 04:42:39;;;;;;;13.90;12.23;;;21.80;94.30;;;;;;4993976;28;20205;-78
2023/06/12 04:45:10;;;;;;;14.83;10.77;;;21.80;94.40;;;;;;4978003;28;20212;-78
2023/06/12 04:47:38;;;;;;;14.57;12.30;;;21.80;94.30;;;;;;4992465;28;20269;-78
2023/06/12 04:50:23;;;;;;;13.00;11.33;;;21.90;94.40;;;;;;5051689;28;20627;-65
2023/06/12 04:52:52;;;;;;;16.47;12.57;;;21.90;94.30;;;;;;5049514;28;20249;-64
2023/06/12 04:55:22;;;;;;;14.23;11.20;;;22.00;94.20;;;;;;5085234;28;20197;-64
2023/06/12 04:57:53;;;;;;;12.40;11.10;;;22.00;94.10;;;;;;5050838;28;20661;-64
2023/06/12 05:00:23;;;;;;;13.23;10.63;;;22.10;94.10;;;;;;5049347;28;20314;-64
2023/06/12 05:02:52;;;;;;;13.43;10.60;;;22.20;94.10;;;;;;5045692;28;20203;-64
2023/06/12 05:05:20;;;;;;;18.77;11.03;;;22.20;94.40;;;;;;5045122;28;20225;-65
2023/06/12 05:07:48;;;;;;;13.47;10.53;;;22.30;94.00;;;;;;5052473;28;20194;-65
2023/06/12 05:10:16;;;;;;;15.37;10.80;;;22.40;93.90;;;;;;5052496;28;20550;-64
2023/06/12 05:12:43;;;;;;;11.70;9.70;;;22.50;93.70;;;;;;5045404;28;20300;-64
2023/06/12 05:15:10;;;;;;;10.33;9.30;;;22.60;93.50;;;;;;5038378;28;20385;-64
2023/06/12 05:17:37;;;;;;;9.33;8.37;;;22.70;93.10;;;;;;5057695;28;20214;-64
2023/06/12 05:20:08;;;;;;;9.13;8.30;;;22.70;92.40;;;;;;5045688;28;20232;-64
2023/06/12 05:22:37;;;;;;;9.97;9.03;;;22.90;92.20;;;;;;5053245;28;20271;-64
2023/06/12 05:25:05;;;;;;;11.90;9.27;;;23.00;91.70;;;;;;5053672;28;20203;-64
2023/06/12 05:27:33;;;;;;;12.07;9.30;;;23.10;91.30;;;;;;5048663;28;20658;-64
2023/06/12 05:30:00;;;;;;;11.13;9.03;;;23.20;91.10;;;;;;5040071;28;20206;-64
2023/06/12 05:32:28;;;;;;;10.47;9.33;;;23.20;91.00;;;;;;5056273;28;20259;-65
2023/06/12 05:34:55;;;;;;;8.57;7.57;;;23.30;91.00;;;;;;5047147;28;20215;-65
2023/06/12 05:37:22;;;;;;;10.27;8.03;;;23.40;90.90;;;;;;5050331;28;20289;-65
2023/06/12 05:39:50;;;;;;;10.77;8.90;;;23.50;90.60;;;;;;5050318;28;20202;-65
2023/06/12 05:42:17;;;;;;;10.43;8.70;;;23.60;90.30;;;;;;5042623;28;20274;-65
2023/06/12 05:44:46;;;;;;;9.70;8.80;;;23.80;90.00;;;;;;5038713;28;20586;-65
2023/06/12 05:47:14;;;;;;;10.93;8.63;;;23.80;90.10;;;;;;5087676;28;20217;-65
2023/06/12 05:49:41;;;;;;;12.10;9.30;;;23.90;89.90;;;;;;5048533;28;20242;-65
2023/06/12 05:52:11;;;;;;;13.07;9.63;;;23.90;89.30;;;;;;5083441;28;20208;-64
2023/06/12 05:54:38;;;;;;;11.37;9.67;;;24.00;88.90;;;;;;5050745;28;20199;-64
2023/06/12 05:57:05;;;;;;;13.67;9.33;;;24.00;89.10;;;;;;5042952;28;20203;-64
2023/06/12 05:59:32;;;;;;;10.03;9.03;;;24.10;89.40;;;;;;5055607;28;20203;-65
2023/06/12 06:02:00;;;;;;;9.67;8.73;;;24.20;89.00;;;;;;5039475;28;20259;-64
2023/06/12 06:04:29;;;;;;;9.87;8.87;;;24.20;88.20;;;;;;5031871;28;20203;-64
2023/06/12 06:06:56;;;;;;;11.30;8.57;;;24.30;88.30;;;;;;5035152;28;20246;-65
2023/06/12 06:09:28;;;;;;;10.10;8.23;;;24.30;88.50;;;;;;5036470;28;20214;-64
2023/06/12 06:11:55;;;;;;;10.43;8.80;;;24.40;88.70;;;;;;5036332;28;20558;-64
2023/06/12 06:14:23;;;;;;;11.27;8.73;;;24.60;88.00;;;;;;5026712;28;20258;-64
2023/06/12 06:16:50;;;;;;;9.60;7.90;;;24.70;87.20;;;;;;5043324;28;20261;-64
2023/06/12 06:19:26;;;;;;;11.73;9.17;;;24.70;86.40;;;;;;5035519;28;20209;-64
2023/06/12 06:21:54;;;;;;;8.87;7.67;;;24.80;86.00;;;;;;5072892;28;20214;-65
2023/06/12 06:24:21;;;;;;;11.03;8.53;;;24.90;86.10;;;;;;5033955;28;20203;-64
2023/06/12 06:26:48;;;;;;;11.63;7.97;;;25.10;85.90;;;;;;5036730;28;20200;-64
2023/06/12 06:29:16;;;;;;;8.70;7.90;;;25.20;84.90;;;;;;5039289;28;20226;-64
2023/06/12 06:31:43;;;;;;;8.50;7.70;;;25.30;84.40;;;;;;5042241;28;20518;-64
2023/06/12 06:34:11;;;;;;;13.80;8.17;;;25.40;84.70;;;;;;5037931;28;20576;-64
2023/06/12 06:36:38;;;;;;;10.93;7.97;;;25.40;84.50;;;;;;5027271;28;20217;-64
2023/06/12 06:39:05;;;;;;;11.53;7.67;;;25.60;84.90;;;;;;5033306;28;20214;-64
2023/06/12 06:41:32;;;;;;;9.33;8.23;;;25.70;84.70;;;;;;5033504;28;20203;-63
2023/06/12 06:44:01;;;;;;;9.30;7.80;;;25.80;83.90;;;;;;5029056;28;20210;-64
2023/06/12 06:46:28;;;;;;;7.40;6.63;;;25.90;83.50;;;;;;5030902;28;20204;-64
2023/06/12 06:48:57;;;;;;;9.20;6.93;;;26.10;83.10;;;;;;5026943;28;20264;-64
2023/06/12 06:51:25;;;;;;;8.17;5.93;;;26.30;83.10;;;;;;5063006;28;20968;-64
2023/06/12 06:53:53;;;;;;;7.60;5.57;;;26.50;82.70;;;;;;5036794;28;20227;-64
2023/06/12 06:56:20;;;;;;;9.63;7.13;;;26.70;81.70;;;;;;5020926;28;20659;-64
2023/06/12 06:58:48;;;;;;;7.13;6.10;;;26.80;79.20;;;;;;5031096;28;20203;-64
2023/06/12 07:01:17;;;;;;;8.40;6.17;;;26.90;78.90;;;;;;5030329;28;20673;-64
2023/06/12 07:03:45;;;;;;;9.47;6.37;;;27.00;79.80;;;;;;5027147;28;20206;-64
2023/06/12 07:06:13;;;;;;;13.67;6.77;;;27.20;79.00;;;;;;5038665;28;20247;-64
2023/06/12 07:08:41;;;;;;;8.53;6.47;;;27.20;76.50;;;;;;5027420;28;20208;-64
2023/06/12 07:11:08;;;;;;;8.37;6.53;;;27.30;76.90;;;;;;5033917;28;20316;-64
2023/06/12 07:13:35;;;;;;;8.27;6.30;;;27.30;77.00;;;;;;5033956;28;20660;-65
2023/06/12 07:16:03;;;;;;;7.43;6.10;;;27.50;75.50;;;;;;5057615;28;20214;-64
2023/06/12 07:18:30;;;;;;;9.20;5.93;;;27.60;75.40;;;;;;5033374;28;20538;-64
2023/06/12 07:20:58;;;;;;;7.73;4.77;;;27.60;76.30;;;;;;5033360;28;20230;-65
2023/06/12 07:23:25;;;;;;;9.07;5.50;;;27.80;76.30;;;;;;5034638;28;20220;-64
2023/06/12 07:25:53;;;;;;;6.17;4.90;;;28.00;75.30;;;;;;5036755;28;20210;-64
2023/06/12 07:28:20;;;;;;;10.77;5.57;;;28.10;74.90;;;;;;5039853;28;20206;-64
2023/06/12 07:30:47;;;;;;;6.33;5.63;;;28.30;75.20;;;;;;5035836;28;20315;-65
2023/06/12 07:33:15;;;;;;;9.23;5.50;;;28.40;74.10;;;;;;5029372;28;20241;-65
2023/06/12 07:35:43;;;;;;;7.20;5.20;;;28.50;73.40;;;;;;5063720;28;20203;-66
2023/06/12 07:38:12;;;;;;;5.23;4.83;;;28.60;73.50;;;;;;5030033;28;20589;-64
2023/06/12 07:40:39;;;;;;;5.40;5.00;;;28.70;73.10;;;;;;5032703;28;20203;-64
2023/06/12 07:43:06;;;;;;;6.33;5.07;;;28.80;72.20;;;;;;5037772;28;20199;-65
2023/06/12 07:45:37;;;;;;;6.13;4.80;;;28.80;70.50;;;;;;5030226;28;20211;-64
2023/06/12 07:48:04;;;;;;;6.93;4.87;;;28.80;69.10;;;;;;5030742;28;20200;-64
2023/06/12 07:50:38;;;;;;;6.30;5.70;;;28.80;69.30;;;;;;5035001;28;20277;-63
2023/06/12 07:53:06;;;;;;;6.20;5.60;;;28.70;70.00;;;;;;5031477;28;20294;-64
2023/06/12 07:55:36;;;;;;;5.13;4.73;;;28.60;68.80;;;;;;5061410;28;20199;-62
2023/06/12 07:58:06;;;;;;;5.40;4.90;;;28.40;69.80;;;;;;5034903;28;20285;-66
2023/06/12 08:00:35;;;;;;;5.13;4.40;;;28.40;70.50;;;;;;5031458;28;20202;-64
2023/06/12 08:03:03;;;;;;;6.70;4.57;;;28.40;71.40;;;;;;5033672;28;20210;-64
2023/06/12 08:05:53;;;;;;;6.07;4.73;;;28.50;72.70;;;;;;5048487;28;20199;-68
2023/06/12 08:08:21;;;;;;;4.93;4.43;;;28.70;72.40;;;;;;5033674;28;20211;-66
2023/06/12 08:10:48;;;;;;;4.00;3.70;;;28.80;69.30;;;;;;5039024;28;20212;-62
2023/06/12 08:13:16;;;;;;;5.30;4.40;;;28.90;69.10;;;;;;5050900;28;20208;-64
2023/06/12 08:15:44;;;;;;;4.87;4.40;;;28.90;70.40;;;;;;5033495;28;20597;-65
2023/06/12 08:18:13;;;;;;;4.10;3.80;;;29.00;70.10;;;;;;5034291;28;20204;-65
2023/06/12 08:20:40;;;;;;;4.53;4.13;;;29.20;70.20;;;;;;5028040;28;20207;-67
2023/06/12 08:23:07;;;;;;;5.47;3.90;;;29.40;68.50;;;;;;5040518;28;20294;-64
2023/06/12 08:25:34;;;;;;;4.30;3.90;;;29.50;68.50;;;;;;5037705;28;20214;-65
2023/06/12 08:28:02;;;;;;;5.33;4.83;;;29.60;67.90;;;;;;5063966;28;20203;-63
2023/06/12 08:30:29;;;;;;;4.53;4.10;;;29.70;66.90;;;;;;5040698;28;20237;-66
2023/06/12 08:32:57;;;;;;;4.80;4.40;;;29.70;65.70;;;;;;5037165;28;20207;-64
2023/06/12 08:35:24;;;;;;;5.13;4.63;;;29.70;65.10;;;;;;5037652;28;20644;-63
2023/06/12 08:37:51;;;;;;;6.77;4.60;;;29.50;63.70;;;;;;5040092;28;20705;-67
2023/06/12 08:40:19;;;;;;;4.93;4.50;;;29.40;64.10;;;;;;5031446;28;20302;-64
2023/06/12 08:42:50;;;;;;;5.07;4.53;;;29.30;64.40;;;;;;5034441;28;20206;-63
2023/06/12 08:45:21;;;;;;;8.13;3.67;;;29.30;64.10;;;;;;5069639;28;20553;-64
2023/06/12 08:47:49;;;;;;;4.20;3.83;;;29.30;64.40;;;;;;5038950;28;20202;-65
2023/06/12 08:50:18;;;;;;;5.60;4.53;;;29.30;65.50;;;;;;5036124;28;20575;-64
2023/06/12 08:52:50;;;;;;;5.53;4.07;;;29.40;64.60;;;;;;5039234;28;20205;-63
2023/06/12 08:55:20;;;;;;;4.33;3.70;;;29.50;65.00;;;;;;5031248;28;20655;-65
2023/06/12 08:57:49;;;;;;;4.40;3.97;;;29.50;65.30;;;;;;5035423;28;20202;-63
2023/06/12 09:00:17;;;;;;;5.00;3.67;;;29.60;64.00;;;;;;5035698;28;20203;-64
2023/06/12 09:02:51;;;;;;;4.80;4.17;;;29.60;62.50;;;;;;5038286;28;20230;-64
2023/06/12 09:05:26;;;;;;;5.00;4.50;;;29.60;63.30;;;;;;5038340;28;20289;-64
2023/06/12 09:07:53;;;;;;;4.77;4.00;;;29.40;62.50;;;;;;5039159;28;20230;-65
2023/06/12 09:10:20;;;;;;;5.20;4.37;;;29.10;63.70;;;;;;5038232;28;20226;-64
2023/06/12 09:12:47;;;;;;;4.67;3.80;;;28.80;64.90;;;;;;5037797;28;20206;-66
2023/06/12 09:15:18;;;;;;;5.53;4.03;;;28.80;62.70;;;;;;5033483;28;20204;-64
2023/06/12 09:17:53;;;;;;;8.13;3.90;;;28.90;63.80;;;;;;5032346;28;20466;-64
2023/06/12 09:20:33;;;;;;;4.03;3.70;;;29.00;66.60;;;;;;5034968;28;20702;-66
2023/06/12 09:23:09;;;;;;;6.07;4.33;;;29.20;66.30;;;;;;5041026;28;20198;-63
2023/06/12 09:25:39;;;;;;;6.60;4.30;;;29.50;66.40;;;;;;5032549;28;20234;-65
2023/06/12 09:28:09;;;;;;;5.27;4.50;;;29.70;64.20;;;;;;5036776;28;20649;-65
2023/06/12 09:30:41;;;;;;;4.57;4.13;;;29.90;63.80;;;;;;5035023;28;20215;-65
2023/06/12 09:33:08;;;;;;;4.67;4.27;;;30.00;63.70;;;;;;5030987;28;20199;-64
2023/06/12 09:35:50;;;;;;;5.60;4.60;;;30.20;62.40;;;;;;5031595;28;20191;-64
2023/06/12 09:38:17;;;;;;;4.30;4.00;;;30.30;61.40;;;;;;5036314;28;20222;-61
2023/06/12 09:40:55;;;;;;;4.60;3.70;;;30.40;63.10;;;;;;5039695;28;20218;-67
2023/06/12 09:43:25;;;;;;;5.30;3.67;;;30.60;62.80;;;;;;5037223;28;20284;-66
2023/06/12 09:45:52;;;;;;;5.40;3.70;;;30.70;59.20;;;;;;5038038;28;20202;-65
2023/06/12 09:48:19;;;;;;;9.10;4.03;;;30.70;59.80;;;;;;5037834;28;20239;-64
2023/06/12 09:50:46;;;;;;;4.70;4.27;;;30.80;61.80;;;;;;5043044;28;20225;-63
2023/06/12 09:53:16;;;;;;;4.73;4.33;;;30.90;61.20;;;;;;5040953;28;20207;-64
2023/06/12 09:55:45;;;;;;;4.60;4.20;;;30.90;58.90;;;;;;5042598;28;20727;-64
2023/06/12 09:58:14;;;;;;;4.00;3.70;;;30.90;59.40;;;;;;5038297;28;20631;-66
2023/06/12 10:00:42;;;;;;;6.10;4.10;;;31.00;59.20;;;;;;5039730;28;20674;-65
2023/06/12 10:03:14;;;;;;;4.03;3.63;;;31.10;60.30;;;;;;5036788;28;20218;-64
2023/06/12 10:05:47;;;;;;;4.20;3.80;;;31.20;60.10;;;;;;5037345;28;20268;-63
2023/06/12 10:08:17;;;;;;;4.53;4.03;;;31.40;59.20;;;;;;5038986;28;20204;-64
2023/06/12 10:10:45;;;;;;;4.80;3.87;;;31.70;59.80;;;;;;5041980;28;20329;-63
2023/06/12 10:13:13;;;;;;;4.53;4.13;;;31.80;57.60;;;;;;5039420;28;20211;-64
2023/06/12 10:15:41;;;;;;;6.30;4.57;;;31.80;58.10;;;;;;5040384;28;20223;-63
2023/06/12 10:18:11;;;;;;;5.07;4.10;;;31.60;57.90;;;;;;5031753;28;20278;-65
2023/06/12 10:20:40;;;;;;;4.20;3.90;;;31.40;59.40;;;;;;5039201;28;20294;-65
2023/06/12 10:23:08;;;;;;;4.37;4.07;;;31.40;59.70;;;;;;5040036;28;20211;-65
2023/06/12 10:25:35;;;;;;;5.90;4.37;;;31.30;59.40;;;;;;5035221;28;20200;-65
2023/06/12 10:28:04;;;;;;;5.30;3.90;;;31.30;59.10;;;;;;5037735;28;20207;-64
2023/06/12 10:30:32;;;;;;;5.13;3.80;;;31.30;58.50;;;;;;5023281;28;20219;-64
2023/06/12 10:33:13;;;;;;;6.43;4.30;;;31.10;58.70;;;;;;5036922;28;20198;-64
2023/06/12 10:35:41;;;;;;;4.73;4.10;;;31.10;58.80;;;;;;5037679;28;20593;-66
2023/06/12 10:38:11;;;;;;;4.93;4.47;;;31.00;60.70;;;;;;5037784;28;20533;-68
2023/06/12 10:40:40;;;;;;;4.70;4.30;;;31.20;59.30;;;;;;5042243;28;20199;-63
2023/06/12 10:43:26;;;;;;;4.87;4.07;;;31.40;58.80;;;;;;5041554;28;20276;-63
2023/06/12 10:45:59;;;;;;;4.60;4.17;;;31.70;58.00;;;;;;5036261;28;20200;-65
2023/06/12 10:48:27;;;;;;;4.60;3.60;;;31.90;57.50;;;;;;5042100;28;20308;-64
2023/06/12 10:50:54;;;;;;;5.60;4.00;;;32.00;56.90;;;;;;5037498;28;20214;-64
2023/06/12 10:53:23;;;;;;;4.00;3.70;;;32.20;58.90;;;;;;5038136;28;20558;-63
2023/06/12 10:55:56;;;;;;;4.13;3.53;;;32.40;59.20;;;;;;5033899;28;20215;-63
2023/06/12 10:58:25;;;;;;;5.03;3.93;;;32.60;57.70;;;;;;5042110;28;20805;-64
2023/06/12 11:00:52;;;;;;;4.63;4.30;;;32.70;58.60;;;;;;5036187;28;20226;-64
2023/06/12 11:03:28;;;;;;;4.97;4.57;;;32.80;56.50;;;;;;5034604;28;20241;-63
2023/06/12 11:06:00;;;;;;;6.10;4.43;;;32.90;57.40;;;;;;5038982;28;20236;-64
2023/06/12 11:08:28;;;;;;;6.03;4.50;;;32.90;56.00;;;;;;5033113;28;20207;-64
2023/06/12 11:10:55;;;;;;;4.50;4.10;;;32.90;56.30;;;;;;5035442;28;20261;-64
2023/06/12 11:13:24;;;;;;;4.70;4.13;;;32.90;56.10;;;;;;5034023;28;20200;-63
2023/06/12 11:15:52;;;;;;;5.37;3.70;;;32.90;54.90;;;;;;5035515;28;20511;-63
2023/06/12 11:18:20;;;;;;;5.00;3.87;;;32.90;55.00;;;;;;5037084;28;20286;-63
2023/06/12 11:20:54;;;;;;;4.73;3.70;;;32.60;55.60;;;;;;5032030;28;20206;-63
2023/06/12 11:23:23;;;;;;;4.57;4.03;;;32.20;56.10;;;;;;5034865;28;20206;-63
2023/06/12 11:25:53;;;;;;;4.47;3.87;;;31.70;55.80;;;;;;5035712;28;20556;-64
2023/06/12 11:28:20;;;;;;;3.80;3.50;;;31.10;56.70;;;;;;5038201;28;20285;-63
2023/06/12 11:30:48;;;;;;;4.10;3.70;;;30.70;57.80;;;;;;5029638;28;20229;-63
2023/06/12 11:33:35;;;;;;;4.07;3.77;;;30.40;59.10;;;;;;5037556;28;20203;-63
2023/06/12 11:36:03;;;;;;;3.63;3.33;;;30.30;59.90;;;;;;5038552;28;20194;-63
2023/06/12 11:38:30;;;;;;;4.10;3.70;;;30.20;59.40;;;;;;5034578;28;20282;-63
2023/06/12 11:41:00;;;;;;;6.67;3.87;;;30.20;59.40;;;;;;5035375;28;20203;-63
2023/06/12 11:43:29;;;;;;;4.33;3.93;;;30.40;57.60;;;;;;5032286;28;20191;-63
2023/06/12 11:46:00;;;;;;;4.07;3.67;;;30.50;58.50;;;;;;5033716;28;20285;-63
2023/06/12 11:48:31;;;;;;;4.30;3.90;;;30.70;58.80;;;;;;5031631;28;20230;-63
2023/06/12 11:51:01;;;;;;;7.23;4.30;;;30.90;55.70;;;;;;5034795;28;20206;-63
2023/06/12 11:53:31;;;;;;;6.10;3.40;;;31.00;57.40;;;;;;5032062;28;20195;-64
2023/06/12 11:56:04;;;;;;;8.73;3.70;;;31.20;57.60;;;;;;5029979;28;20194;-63
2023/06/12 11:58:41;;;;;;;4.30;3.90;;;31.50;58.80;;;;;;5034545;28;20195;-63
2023/06/12 12:01:23;;;;;;;4.13;3.80;;;31.80;58.40;;;;;;5030321;28;21099;-63
2023/06/12 12:03:51;;;;;;;4.07;3.77;;;32.00;58.20;;;;;;5037475;28;20230;-63
2023/06/12 12:06:28;;;;;;;3.37;3.17;;;32.30;57.80;;;;;;5037763;28;20197;-63
2023/06/12 12:08:56;;;;;;;4.30;3.50;;;32.30;55.50;;;;;;5032478;28;20205;-63
2023/06/12 12:11:29;;;;;;;4.80;3.83;;;32.20;55.50;;;;;;5033114;28;20309;-63
2023/06/12 12:14:03;;;;;;;4.23;3.40;;;32.10;57.10;;;;;;5035928;28;20274;-63
2023/06/12 12:16:43;;;;;;;6.83;3.73;;;32.00;56.10;;;;;;5037304;28;20663;-63
2023/06/12 12:19:29;;;;;;;3.97;3.57;;;31.80;57.00;;;;;;5036176;28;20252;-63
2023/06/12 12:21:57;;;;;;;4.30;3.27;;;31.70;56.50;;;;;;5032199;28;20215;-63
2023/06/12 12:24:25;;;;;;;3.30;3.00;;;31.40;56.00;;;;;;5035768;28;20557;-63
2023/06/12 12:26:53;;;;;;;5.87;2.70;;;31.00;57.70;;;;;;5031341;28;20199;-63
2023/06/12 12:29:22;;;;;;;3.30;3.00;;;30.70;57.40;;;;;;5030273;28;20198;-63
2023/06/12 12:31:49;;;;;;;2.97;2.77;;;30.40;56.70;;;;;;5038399;28;20322;-63
2023/06/12 12:34:16;;;;;;;3.50;3.20;;;30.10;56.30;;;;;;5040291;28;20206;-64
2023/06/12 12:36:45;;;;;;;4.47;3.67;;;29.80;57.10;;;;;;5034092;28;20207;-63
2023/06/12 12:39:12;;;;;;;3.47;3.17;;;29.60;59.00;;;;;;5037475;28;20194;-63
2023/06/12 12:41:39;;;;;;;3.50;3.20;;;29.50;58.70;;;;;;5030182;28;20202;-66
2023/06/12 12:44:06;;;;;;;3.20;3.00;;;29.40;58.80;;;;;;5036040;28;20565;-65
2023/06/12 12:46:34;;;;;;;3.93;3.63;;;29.40;60.00;;;;;;5033262;28;20268;-64
2023/06/12 12:49:01;;;;;;;4.03;3.70;;;29.30;61.50;;;;;;5032432;28;20300;-63
2023/06/12 12:51:29;;;;;;;3.60;3.30;;;29.40;61.20;;;;;;5033674;28;20229;-64
2023/06/12 12:53:56;;;;;;;4.27;3.30;;;29.50;60.60;;;;;;5031483;28;20195;-65
2023/06/12 12:56:24;;;;;;;4.30;3.60;;;29.70;61.50;;;;;;5032232;28;20199;-66